Eden Valley, Minnesota
Current Conditions -  °F | °C
As of 1:54 AM on Saturday 20 Dec 2014 (Local Time) from KPEX Reporting Station
Haze Haze  
Wind Chill: -6°   Ceiling: 900
Heat Index: -2°   Visibility: 4mi
Dew Point: -3°   Wind: 7mph
Humidity: 96%   Direction: 140°SE
Pressure: 30.09"   Gusts: NA
Location:  45.33°N, 94.55°W
Report Text: KPEX 200754Z AUTO 14006KT 4SM BR OVC009 M02/M02 A3009 RMK AO2 T10201025
Loading
Personal Weather Stations






























Interactive Weather Map New forecast layout! Learn more

10-Day Weather Forecast

Advertisements
Track Severe Weather on mobile